sensor_id;sensor_type;location;lat;lon;timestamp;P1;durP1;ratioP1;P2;durP2;ratioP2
55913;SDS011;58179;48.776;9.124;2024-01-11T00:01:36;53.05;;;27.20;;
55913;SDS011;58179;48.776;9.124;2024-01-11T00:04:02;48.35;;;25.48;;
55913;SDS011;58179;48.776;9.124;2024-01-11T00:06:28;51.05;;;25.73;;
55913;SDS011;58179;48.776;9.124;2024-01-11T00:08:55;46.70;;;24.20;;
55913;SDS011;58179;48.776;9.124;2024-01-11T00:11:21;55.75;;;27.95;;
55913;SDS011;58179;48.776;9.124;2024-01-11T00:13:47;44.50;;;24.50;;
55913;SDS011;58179;48.776;9.124;2024-01-11T00:16:13;46.77;;;24.63;;
55913;SDS011;58179;48.776;9.124;2024-01-11T00:18:40;45.05;;;23.02;;
55913;SDS011;58179;48.776;9.124;2024-01-11T00:21:07;45.28;;;23.15;;
55913;SDS011;58179;48.776;9.124;2024-01-11T00:23:33;42.67;;;21.73;;
55913;SDS011;58179;48.776;9.124;2024-01-11T00:25:59;54.53;;;27.92;;
55913;SDS011;58179;48.776;9.124;2024-01-11T00:28:25;49.78;;;26.83;;
55913;SDS011;58179;48.776;9.124;2024-01-11T00:30:51;54.28;;;27.45;;
55913;SDS011;58179;48.776;9.124;2024-01-11T00:33:17;51.08;;;26.08;;
55913;SDS011;58179;48.776;9.124;2024-01-11T00:35:45;46.10;;;24.48;;
55913;SDS011;58179;48.776;9.124;2024-01-11T00:38:11;50.25;;;25.60;;
55913;SDS011;58179;48.776;9.124;2024-01-11T00:40:37;47.70;;;24.38;;
55913;SDS011;58179;48.776;9.124;2024-01-11T00:43:03;50.90;;;26.33;;
55913;SDS011;58179;48.776;9.124;2024-01-11T00:45:29;54.47;;;27.25;;
55913;SDS011;58179;48.776;9.124;2024-01-11T00:47:55;51.72;;;25.65;;
55913;SDS011;58179;48.776;9.124;2024-01-11T00:50:21;49.10;;;25.02;;
55913;SDS011;58179;48.776;9.124;2024-01-11T00:52:49;50.90;;;26.90;;
55913;SDS011;58179;48.776;9.124;2024-01-11T00:55:15;50.97;;;27.58;;
55913;SDS011;58179;48.776;9.124;2024-01-11T00:57:41;46.90;;;24.55;;
55913;SDS011;58179;48.776;9.124;2024-01-11T01:00:08;52.53;;;27.15;;
55913;SDS011;58179;48.776;9.124;2024-01-11T01:02:39;50.67;;;26.20;;
55913;SDS011;58179;48.776;9.124;2024-01-11T01:05:05;48.58;;;25.67;;
55913;SDS011;58179;48.776;9.124;2024-01-11T01:07:32;56.10;;;27.73;;
55913;SDS011;58179;48.776;9.124;2024-01-11T01:10:00;53.80;;;27.40;;
55913;SDS011;58179;48.776;9.124;2024-01-11T01:12:26;56.47;;;29.08;;
55913;SDS011;58179;48.776;9.124;2024-01-11T01:14:53;59.33;;;29.85;;
55913;SDS011;58179;48.776;9.124;2024-01-11T01:17:21;55.70;;;27.58;;
55913;SDS011;58179;48.776;9.124;2024-01-11T01:19:47;56.58;;;28.85;;
55913;SDS011;58179;48.776;9.124;2024-01-11T01:22:13;57.90;;;28.13;;
55913;SDS011;58179;48.776;9.124;2024-01-11T01:24:39;69.47;;;33.87;;
55913;SDS011;58179;48.776;9.124;2024-01-11T01:27:07;63.35;;;31.20;;
55913;SDS011;58179;48.776;9.124;2024-01-11T01:29:33;70.40;;;32.55;;
55913;SDS011;58179;48.776;9.124;2024-01-11T01:31:59;59.35;;;30.60;;
55913;SDS011;58179;48.776;9.124;2024-01-11T01:34:25;54.60;;;29.08;;
55913;SDS011;58179;48.776;9.124;2024-01-11T01:36:51;53.28;;;27.35;;
55913;SDS011;58179;48.776;9.124;2024-01-11T01:39:18;53.33;;;25.92;;
55913;SDS011;58179;48.776;9.124;2024-01-11T01:41:44;53.38;;;27.33;;
55913;SDS011;58179;48.776;9.124;2024-01-11T01:44:11;57.65;;;29.38;;
55913;SDS011;58179;48.776;9.124;2024-01-11T01:46:37;61.13;;;30.20;;
55913;SDS011;58179;48.776;9.124;2024-01-11T01:49:04;59.05;;;29.65;;
55913;SDS011;58179;48.776;9.124;2024-01-11T01:51:31;53.95;;;27.83;;
55913;SDS011;58179;48.776;9.124;2024-01-11T01:53:58;56.40;;;27.95;;
55913;SDS011;58179;48.776;9.124;2024-01-11T01:56:26;49.60;;;24.85;;
55913;SDS011;58179;48.776;9.124;2024-01-11T01:58:53;49.78;;;24.75;;
55913;SDS011;58179;48.776;9.124;2024-01-11T02:01:21;46.83;;;24.13;;
55913;SDS011;58179;48.776;9.124;2024-01-11T02:03:50;51.60;;;25.58;;
55913;SDS011;58179;48.776;9.124;2024-01-11T02:06:19;48.22;;;25.23;;
55913;SDS011;58179;48.776;9.124;2024-01-11T02:08:48;56.65;;;28.70;;
55913;SDS011;58179;48.776;9.124;2024-01-11T02:11:16;60.67;;;29.80;;
55913;SDS011;58179;48.776;9.124;2024-01-11T02:13:44;55.70;;;27.48;;
55913;SDS011;58179;48.776;9.124;2024-01-11T02:16:11;58.08;;;29.02;;
55913;SDS011;58179;48.776;9.124;2024-01-11T02:18:39;53.08;;;26.60;;
55913;SDS011;58179;48.776;9.124;2024-01-11T02:21:06;53.42;;;26.92;;
55913;SDS011;58179;48.776;9.124;2024-01-11T02:23:36;54.38;;;28.02;;
55913;SDS011;58179;48.776;9.124;2024-01-11T02:26:11;52.60;;;26.33;;
55913;SDS011;58179;48.776;9.124;2024-01-11T02:28:38;47.58;;;25.10;;
55913;SDS011;58179;48.776;9.124;2024-01-11T02:31:09;49.55;;;25.15;;
55913;SDS011;58179;48.776;9.124;2024-01-11T02:33:35;45.67;;;23.88;;
55913;SDS011;58179;48.776;9.124;2024-01-11T02:36:02;47.95;;;24.75;;
55913;SDS011;58179;48.776;9.124;2024-01-11T02:38:29;46.00;;;23.45;;
55913;SDS011;58179;48.776;9.124;2024-01-11T02:40:55;44.85;;;22.58;;
55913;SDS011;58179;48.776;9.124;2024-01-11T02:43:25;45.17;;;22.23;;
55913;SDS011;58179;48.776;9.124;2024-01-11T02:45:53;44.63;;;23.23;;
55913;SDS011;58179;48.776;9.124;2024-01-11T02:48:20;49.93;;;24.17;;
55913;SDS011;58179;48.776;9.124;2024-01-11T02:50:46;47.00;;;23.80;;
55913;SDS011;58179;48.776;9.124;2024-01-11T02:53:13;50.60;;;26.02;;
55913;SDS011;58179;48.776;9.124;2024-01-11T02:55:39;55.30;;;26.02;;
55913;SDS011;58179;48.776;9.124;2024-01-11T02:58:05;49.73;;;25.57;;
55913;SDS011;58179;48.776;9.124;2024-01-11T03:00:33;46.08;;;22.50;;
55913;SDS011;58179;48.776;9.124;2024-01-11T03:02:59;52.25;;;26.48;;
55913;SDS011;58179;48.776;9.124;2024-01-11T03:05:25;51.45;;;26.65;;
55913;SDS011;58179;48.776;9.124;2024-01-11T03:07:51;52.78;;;26.80;;
55913;SDS011;58179;48.776;9.124;2024-01-11T03:10:18;50.80;;;25.42;;
55913;SDS011;58179;48.776;9.124;2024-01-11T03:12:44;50.47;;;25.67;;
55913;SDS011;58179;48.776;9.124;2024-01-11T03:15:10;47.70;;;24.63;;
55913;SDS011;58179;48.776;9.124;2024-01-11T03:17:37;67.40;;;32.78;;
55913;SDS011;58179;48.776;9.124;2024-01-11T03:20:04;56.38;;;28.55;;
55913;SDS011;58179;48.776;9.124;2024-01-11T03:22:31;51.88;;;26.80;;
55913;SDS011;58179;48.776;9.124;2024-01-11T03:24:57;48.63;;;24.55;;
55913;SDS011;58179;48.776;9.124;2024-01-11T03:27:23;47.17;;;24.30;;
55913;SDS011;58179;48.776;9.124;2024-01-11T03:29:49;47.45;;;24.88;;
55913;SDS011;58179;48.776;9.124;2024-01-11T03:32:15;52.65;;;28.33;;
55913;SDS011;58179;48.776;9.124;2024-01-11T03:34:43;48.83;;;26.27;;
55913;SDS011;58179;48.776;9.124;2024-01-11T03:37:09;48.40;;;25.90;;
55913;SDS011;58179;48.776;9.124;2024-01-11T03:39:35;47.85;;;26.05;;
55913;SDS011;58179;48.776;9.124;2024-01-11T03:42:01;51.88;;;26.20;;
55913;SDS011;58179;48.776;9.124;2024-01-11T03:44:29;48.60;;;24.40;;
55913;SDS011;58179;48.776;9.124;2024-01-11T03:46:56;48.40;;;25.23;;
55913;SDS011;58179;48.776;9.124;2024-01-11T03:49:22;41.20;;;21.95;;
55913;SDS011;58179;48.776;9.124;2024-01-11T03:51:50;44.97;;;23.17;;
55913;SDS011;58179;48.776;9.124;2024-01-11T03:54:16;44.40;;;23.60;;
55913;SDS011;58179;48.776;9.124;2024-01-11T03:56:42;53.30;;;26.73;;
55913;SDS011;58179;48.776;9.124;2024-01-11T03:59:08;51.00;;;26.95;;
55913;SDS011;58179;48.776;9.124;2024-01-11T04:01:38;55.78;;;27.98;;
55913;SDS011;58179;48.776;9.124;2024-01-11T04:04:05;52.05;;;27.02;;
55913;SDS011;58179;48.776;9.124;2024-01-11T04:06:31;51.08;;;25.55;;
55913;SDS011;58179;48.776;9.124;2024-01-11T04:08:59;46.63;;;25.35;;
55913;SDS011;58179;48.776;9.124;2024-01-11T04:11:26;48.72;;;26.63;;
55913;SDS011;58179;48.776;9.124;2024-01-11T04:13:53;49.50;;;25.17;;
55913;SDS011;58179;48.776;9.124;2024-01-11T04:16:19;48.60;;;26.00;;
55913;SDS011;58179;48.776;9.124;2024-01-11T04:18:46;48.08;;;25.70;;
55913;SDS011;58179;48.776;9.124;2024-01-11T04:21:19;57.80;;;28.45;;
55913;SDS011;58179;48.776;9.124;2024-01-11T04:23:46;48.58;;;26.42;;
55913;SDS011;58179;48.776;9.124;2024-01-11T04:26:14;49.08;;;25.15;;
55913;SDS011;58179;48.776;9.124;2024-01-11T04:28:40;45.42;;;24.67;;
55913;SDS011;58179;48.776;9.124;2024-01-11T04:31:07;54.95;;;27.83;;
55913;SDS011;58179;48.776;9.124;2024-01-11T04:33:33;52.03;;;26.03;;
55913;SDS011;58179;48.776;9.124;2024-01-11T04:36:00;48.80;;;25.92;;
55913;SDS011;58179;48.776;9.124;2024-01-11T04:38:26;59.78;;;30.77;;
55913;SDS011;58179;48.776;9.124;2024-01-11T04:40:52;51.92;;;25.95;;
55913;SDS011;58179;48.776;9.124;2024-01-11T04:43:19;49.25;;;25.42;;
55913;SDS011;58179;48.776;9.124;2024-01-11T04:45:45;49.42;;;25.35;;
55913;SDS011;58179;48.776;9.124;2024-01-11T04:48:11;46.30;;;24.10;;
55913;SDS011;58179;48.776;9.124;2024-01-11T04:50:38;50.97;;;26.25;;
55913;SDS011;58179;48.776;9.124;2024-01-11T04:53:04;50.58;;;26.23;;
55913;SDS011;58179;48.776;9.124;2024-01-11T04:55:31;49.93;;;25.93;;
55913;SDS011;58179;48.776;9.124;2024-01-11T04:57:57;48.78;;;25.92;;
55913;SDS011;58179;48.776;9.124;2024-01-11T05:00:24;47.83;;;24.02;;
55913;SDS011;58179;48.776;9.124;2024-01-11T05:02:51;44.72;;;23.98;;
55913;SDS011;58179;48.776;9.124;2024-01-11T05:05:17;43.08;;;22.25;;
55913;SDS011;58179;48.776;9.124;2024-01-11T05:07:43;55.50;;;28.70;;
55913;SDS011;58179;48.776;9.124;2024-01-11T05:10:09;53.40;;;25.98;;
55913;SDS011;58179;48.776;9.124;2024-01-11T05:12:35;52.97;;;25.70;;
55913;SDS011;58179;48.776;9.124;2024-01-11T05:15:03;48.05;;;23.50;;
55913;SDS011;58179;48.776;9.124;2024-01-11T05:17:32;51.20;;;25.43;;
55913;SDS011;58179;48.776;9.124;2024-01-11T05:19:58;51.55;;;25.35;;
55913;SDS011;58179;48.776;9.124;2024-01-11T05:22:25;48.60;;;23.38;;
55913;SDS011;58179;48.776;9.124;2024-01-11T05:24:51;47.97;;;22.95;;
55913;SDS011;58179;48.776;9.124;2024-01-11T05:27:17;50.05;;;25.58;;
55913;SDS011;58179;48.776;9.124;2024-01-11T05:29:43;50.58;;;25.90;;
55913;SDS011;58179;48.776;9.124;2024-01-11T05:32:09;52.80;;;26.30;;
55913;SDS011;58179;48.776;9.124;2024-01-11T05:34:37;48.53;;;24.15;;
55913;SDS011;58179;48.776;9.124;2024-01-11T05:37:03;84.40;;;40.42;;
55913;SDS011;58179;48.776;9.124;2024-01-11T05:39:29;67.65;;;32.33;;
55913;SDS011;58179;48.776;9.124;2024-01-11T05:41:56;62.40;;;29.60;;
55913;SDS011;58179;48.776;9.124;2024-01-11T05:44:22;57.40;;;27.90;;
55913;SDS011;58179;48.776;9.124;2024-01-11T05:46:48;57.65;;;29.90;;
55913;SDS011;58179;48.776;9.124;2024-01-11T05:49:14;56.63;;;26.05;;
55913;SDS011;58179;48.776;9.124;2024-01-11T05:51:42;52.92;;;27.05;;
55913;SDS011;58179;48.776;9.124;2024-01-11T05:54:08;49.13;;;24.85;;
55913;SDS011;58179;48.776;9.124;2024-01-11T05:56:34;48.75;;;24.52;;
55913;SDS011;58179;48.776;9.124;2024-01-11T05:59:00;45.17;;;23.63;;
55913;SDS011;58179;48.776;9.124;2024-01-11T06:01:26;50.38;;;25.42;;
55913;SDS011;58179;48.776;9.124;2024-01-11T06:03:53;54.40;;;25.63;;
55913;SDS011;58179;48.776;9.124;2024-01-11T06:06:20;48.13;;;24.77;;
55913;SDS011;58179;48.776;9.124;2024-01-11T06:08:47;46.03;;;23.48;;
55913;SDS011;58179;48.776;9.124;2024-01-11T06:11:13;51.47;;;26.45;;
55913;SDS011;58179;48.776;9.124;2024-01-11T06:13:40;56.67;;;26.48;;
55913;SDS011;58179;48.776;9.124;2024-01-11T06:16:06;49.03;;;24.67;;
55913;SDS011;58179;48.776;9.124;2024-01-11T06:18:32;54.65;;;26.25;;
55913;SDS011;58179;48.776;9.124;2024-01-11T06:21:00;51.70;;;24.83;;
55913;SDS011;58179;48.776;9.124;2024-01-11T06:23:26;58.97;;;29.75;;
55913;SDS011;58179;48.776;9.124;2024-01-11T06:25:53;52.60;;;26.27;;
55913;SDS011;58179;48.776;9.124;2024-01-11T06:28:19;48.83;;;24.60;;
55913;SDS011;58179;48.776;9.124;2024-01-11T06:30:45;50.33;;;25.92;;
55913;SDS011;58179;48.776;9.124;2024-01-11T06:33:12;56.45;;;27.52;;
55913;SDS011;58179;48.776;9.124;2024-01-11T06:35:38;57.55;;;28.02;;
55913;SDS011;58179;48.776;9.124;2024-01-11T06:38:05;53.58;;;25.60;;
55913;SDS011;58179;48.776;9.124;2024-01-11T06:40:31;53.00;;;26.17;;
55913;SDS011;58179;48.776;9.124;2024-01-11T06:42:58;53.45;;;27.00;;
55913;SDS011;58179;48.776;9.124;2024-01-11T06:45:24;55.22;;;27.95;;
55913;SDS011;58179;48.776;9.124;2024-01-11T06:47:50;59.58;;;29.17;;
55913;SDS011;58179;48.776;9.124;2024-01-11T06:50:16;55.63;;;27.58;;
55913;SDS011;58179;48.776;9.124;2024-01-11T06:52:43;53.17;;;25.87;;
55913;SDS011;58179;48.776;9.124;2024-01-11T06:55:09;55.75;;;26.40;;
55913;SDS011;58179;48.776;9.124;2024-01-11T06:57:36;50.72;;;25.45;;
55913;SDS011;58179;48.776;9.124;2024-01-11T07:00:04;57.53;;;28.27;;
55913;SDS011;58179;48.776;9.124;2024-01-11T07:02:32;57.25;;;27.20;;
55913;SDS011;58179;48.776;9.124;2024-01-11T07:04:58;56.97;;;28.73;;
55913;SDS011;58179;48.776;9.124;2024-01-11T07:07:24;57.63;;;29.70;;
55913;SDS011;58179;48.776;9.124;2024-01-11T07:09:51;63.42;;;31.75;;
55913;SDS011;58179;48.776;9.124;2024-01-11T07:12:20;54.38;;;27.45;;
55913;SDS011;58179;48.776;9.124;2024-01-11T07:14:46;57.47;;;28.30;;
55913;SDS011;58179;48.776;9.124;2024-01-11T07:17:14;46.85;;;25.48;;
55913;SDS011;58179;48.776;9.124;2024-01-11T07:19:40;55.80;;;28.13;;
55913;SDS011;58179;48.776;9.124;2024-01-11T07:22:06;56.35;;;28.73;;
55913;SDS011;58179;48.776;9.124;2024-01-11T07:24:32;58.78;;;28.42;;
55913;SDS011;58179;48.776;9.124;2024-01-11T07:27:02;58.80;;;29.05;;
55913;SDS011;58179;48.776;9.124;2024-01-11T07:29:29;58.03;;;28.45;;
55913;SDS011;58179;48.776;9.124;2024-01-11T07:31:55;54.67;;;27.25;;
55913;SDS011;58179;48.776;9.124;2024-01-11T07:34:22;53.00;;;26.45;;
55913;SDS011;58179;48.776;9.124;2024-01-11T07:36:49;51.55;;;26.15;;
55913;SDS011;58179;48.776;9.124;2024-01-11T07:39:16;46.42;;;24.05;;
55913;SDS011;58179;48.776;9.124;2024-01-11T07:41:42;47.70;;;23.87;;
55913;SDS011;58179;48.776;9.124;2024-01-11T07:44:09;57.90;;;29.85;;
55913;SDS011;58179;48.776;9.124;2024-01-11T07:46:35;59.80;;;29.98;;
55913;SDS011;58179;48.776;9.124;2024-01-11T07:49:01;72.95;;;34.63;;
55913;SDS011;58179;48.776;9.124;2024-01-11T07:51:28;71.45;;;34.35;;
55913;SDS011;58179;48.776;9.124;2024-01-11T07:53:55;65.25;;;32.67;;
55913;SDS011;58179;48.776;9.124;2024-01-11T07:56:21;68.10;;;32.22;;
55913;SDS011;58179;48.776;9.124;2024-01-11T07:58:47;55.40;;;28.75;;
55913;SDS011;58179;48.776;9.124;2024-01-11T08:01:14;56.40;;;28.47;;
55913;SDS011;58179;48.776;9.124;2024-01-11T08:03:41;60.40;;;29.10;;
55913;SDS011;58179;48.776;9.124;2024-01-11T08:06:10;55.58;;;27.00;;
55913;SDS011;58179;48.776;9.124;2024-01-11T08:08:37;51.63;;;26.35;;
55913;SDS011;58179;48.776;9.124;2024-01-11T08:11:04;67.07;;;33.35;;
55913;SDS011;58179;48.776;9.124;2024-01-11T08:13:30;76.13;;;36.38;;
55913;SDS011;58179;48.776;9.124;2024-01-11T08:15:56;86.43;;;39.05;;
55913;SDS011;58179;48.776;9.124;2024-01-11T08:18:22;77.28;;;36.25;;
55913;SDS011;58179;48.776;9.124;2024-01-11T08:20:49;69.75;;;35.20;;
55913;SDS011;58179;48.776;9.124;2024-01-11T08:23:15;59.30;;;29.35;;
55913;SDS011;58179;48.776;9.124;2024-01-11T08:25:43;57.30;;;29.48;;
55913;SDS011;58179;48.776;9.124;2024-01-11T08:28:09;53.70;;;28.17;;
55913;SDS011;58179;48.776;9.124;2024-01-11T08:30:35;53.42;;;27.70;;
55913;SDS011;58179;48.776;9.124;2024-01-11T08:33:01;54.20;;;27.98;;
55913;SDS011;58179;48.776;9.124;2024-01-11T08:35:29;52.42;;;28.60;;
55913;SDS011;58179;48.776;9.124;2024-01-11T08:37:57;59.38;;;30.00;;
55913;SDS011;58179;48.776;9.124;2024-01-11T08:40:23;57.33;;;30.50;;
55913;SDS011;58179;48.776;9.124;2024-01-11T08:42:51;63.97;;;32.38;;
55913;SDS011;58179;48.776;9.124;2024-01-11T08:45:18;63.95;;;30.60;;
55913;SDS011;58179;48.776;9.124;2024-01-11T08:47:44;54.75;;;29.13;;
55913;SDS011;58179;48.776;9.124;2024-01-11T08:50:12;57.05;;;29.83;;
55913;SDS011;58179;48.776;9.124;2024-01-11T08:52:38;49.53;;;26.87;;
55913;SDS011;58179;48.776;9.124;2024-01-11T08:55:04;64.93;;;34.33;;
55913;SDS011;58179;48.776;9.124;2024-01-11T08:57:31;61.50;;;31.98;;
55913;SDS011;58179;48.776;9.124;2024-01-11T08:59:58;67.67;;;34.93;;
55913;SDS011;58179;48.776;9.124;2024-01-11T09:02:24;77.50;;;38.83;;
55913;SDS011;58179;48.776;9.124;2024-01-11T09:04:50;96.32;;;47.28;;
55913;SDS011;58179;48.776;9.124;2024-01-11T09:07:17;106.10;;;50.00;;
55913;SDS011;58179;48.776;9.124;2024-01-11T09:09:43;104.53;;;52.60;;
55913;SDS011;58179;48.776;9.124;2024-01-11T09:12:09;110.18;;;52.20;;
55913;SDS011;58179;48.776;9.124;2024-01-11T09:14:36;94.68;;;46.80;;
55913;SDS011;58179;48.776;9.124;2024-01-11T09:17:03;74.05;;;39.50;;
55913;SDS011;58179;48.776;9.124;2024-01-11T09:19:31;70.25;;;36.63;;
55913;SDS011;58179;48.776;9.124;2024-01-11T09:21:58;63.33;;;33.97;;
55913;SDS011;58179;48.776;9.124;2024-01-11T09:24:25;69.65;;;38.00;;
55913;SDS011;58179;48.776;9.124;2024-01-11T09:26:51;78.47;;;40.72;;
55913;SDS011;58179;48.776;9.124;2024-01-11T09:29:17;71.75;;;37.63;;
55913;SDS011;58179;48.776;9.124;2024-01-11T09:31:43;70.95;;;37.67;;
55913;SDS011;58179;48.776;9.124;2024-01-11T09:34:11;67.38;;;36.08;;
55913;SDS011;58179;48.776;9.124;2024-01-11T09:36:37;63.25;;;35.80;;
55913;SDS011;58179;48.776;9.124;2024-01-11T09:39:06;62.10;;;33.72;;
55913;SDS011;58179;48.776;9.124;2024-01-11T09:41:33;58.83;;;32.22;;
55913;SDS011;58179;48.776;9.124;2024-01-11T09:44:01;58.53;;;32.70;;
55913;SDS011;58179;48.776;9.124;2024-01-11T09:46:31;61.95;;;35.30;;
55913;SDS011;58179;48.776;9.124;2024-01-11T09:48:57;63.35;;;36.65;;
55913;SDS011;58179;48.776;9.124;2024-01-11T09:51:26;57.13;;;34.27;;
55913;SDS011;58179;48.776;9.124;2024-01-11T09:53:55;58.30;;;32.88;;
55913;SDS011;58179;48.776;9.124;2024-01-11T09:56:23;58.17;;;32.72;;
55913;SDS011;58179;48.776;9.124;2024-01-11T09:58:52;53.15;;;31.35;;
55913;SDS011;58179;48.776;9.124;2024-01-11T10:01:18;46.53;;;29.58;;
55913;SDS011;58179;48.776;9.124;2024-01-11T10:03:45;39.65;;;26.27;;
55913;SDS011;58179;48.776;9.124;2024-01-11T10:06:11;35.55;;;23.77;;
55913;SDS011;58179;48.776;9.124;2024-01-11T10:08:40;33.85;;;22.95;;
55913;SDS011;58179;48.776;9.124;2024-01-11T10:11:06;32.15;;;21.83;;
55913;SDS011;58179;48.776;9.124;2024-01-11T10:13:32;30.73;;;20.20;;
55913;SDS011;58179;48.776;9.124;2024-01-11T10:16:07;30.25;;;20.73;;
55913;SDS011;58179;48.776;9.124;2024-01-11T10:18:35;33.75;;;22.27;;
55913;SDS011;58179;48.776;9.124;2024-01-11T10:21:02;31.38;;;21.83;;
55913;SDS011;58179;48.776;9.124;2024-01-11T10:23:28;30.27;;;21.08;;
55913;SDS011;58179;48.776;9.124;2024-01-11T10:25:59;28.98;;;19.50;;
55913;SDS011;58179;48.776;9.124;2024-01-11T10:28:25;47.85;;;31.13;;
55913;SDS011;58179;48.776;9.124;2024-01-11T10:30:52;52.35;;;32.13;;
55913;SDS011;58179;48.776;9.124;2024-01-11T10:33:19;43.35;;;28.27;;
55913;SDS011;58179;48.776;9.124;2024-01-11T10:35:46;37.00;;;24.35;;
55913;SDS011;58179;48.776;9.124;2024-01-11T10:38:16;34.88;;;22.00;;
55913;SDS011;58179;48.776;9.124;2024-01-11T10:40:44;31.10;;;20.80;;
55913;SDS011;58179;48.776;9.124;2024-01-11T10:43:13;32.63;;;21.08;;
55913;SDS011;58179;48.776;9.124;2024-01-11T10:45:44;31.63;;;19.83;;
55913;SDS011;58179;48.776;9.124;2024-01-11T10:48:13;31.88;;;20.58;;
55913;SDS011;58179;48.776;9.124;2024-01-11T10:50:41;33.40;;;19.73;;
55913;SDS011;58179;48.776;9.124;2024-01-11T10:53:12;30.00;;;18.98;;
55913;SDS011;58179;48.776;9.124;2024-01-11T10:55:46;29.77;;;18.13;;
55913;SDS011;58179;48.776;9.124;2024-01-11T10:58:15;29.92;;;19.50;;
55913;SDS011;58179;48.776;9.124;2024-01-11T11:00:43;31.33;;;17.73;;
55913;SDS011;58179;48.776;9.124;2024-01-11T11:03:11;25.80;;;17.05;;
55913;SDS011;58179;48.776;9.124;2024-01-11T11:05:39;29.98;;;19.00;;
55913;SDS011;58179;48.776;9.124;2024-01-11T11:08:07;28.92;;;18.35;;
55913;SDS011;58179;48.776;9.124;2024-01-11T11:10:36;27.15;;;17.38;;
55913;SDS011;58179;48.776;9.124;2024-01-11T11:13:05;28.93;;;17.93;;
55913;SDS011;58179;48.776;9.124;2024-01-11T11:15:34;28.80;;;17.80;;
55913;SDS011;58179;48.776;9.124;2024-01-11T11:18:02;26.30;;;17.05;;
55913;SDS011;58179;48.776;9.124;2024-01-11T11:20:30;27.73;;;17.15;;
55913;SDS011;58179;48.776;9.124;2024-01-11T11:23:03;24.40;;;15.48;;
55913;SDS011;58179;48.776;9.124;2024-01-11T11:25:30;23.58;;;15.50;;
55913;SDS011;58179;48.776;9.124;2024-01-11T11:27:59;26.02;;;16.15;;
55913;SDS011;58179;48.776;9.124;2024-01-11T11:30:31;25.42;;;15.60;;
55913;SDS011;58179;48.776;9.124;2024-01-11T11:32:59;24.65;;;16.23;;
55913;SDS011;58179;48.776;9.124;2024-01-11T11:35:34;24.23;;;15.05;;
55913;SDS011;58179;48.776;9.124;2024-01-11T11:38:00;27.37;;;16.43;;
55913;SDS011;58179;48.776;9.124;2024-01-11T11:40:31;25.70;;;15.73;;
55913;SDS011;58179;48.776;9.124;2024-01-11T11:43:00;22.42;;;15.10;;
55913;SDS011;58179;48.776;9.124;2024-01-11T11:45:28;26.30;;;15.93;;
55913;SDS011;58179;48.776;9.124;2024-01-11T11:47:56;23.88;;;15.45;;
55913;SDS011;58179;48.776;9.124;2024-01-11T11:50:24;24.52;;;15.15;;
55913;SDS011;58179;48.776;9.124;2024-01-11T11:52:53;24.92;;;16.05;;
55913;SDS011;58179;48.776;9.124;2024-01-11T11:55:22;26.90;;;16.38;;
55913;SDS011;58179;48.776;9.124;2024-01-11T11:57:52;25.00;;;15.52;;
55913;SDS011;58179;48.776;9.124;2024-01-11T12:00:18;26.13;;;16.33;;
55913;SDS011;58179;48.776;9.124;2024-01-11T12:02:46;34.47;;;20.80;;
55913;SDS011;58179;48.776;9.124;2024-01-11T12:05:12;33.40;;;20.23;;
55913;SDS011;58179;48.776;9.124;2024-01-11T12:07:40;29.87;;;19.03;;
55913;SDS011;58179;48.776;9.124;2024-01-11T12:10:06;31.20;;;20.00;;
55913;SDS011;58179;48.776;9.124;2024-01-11T12:12:33;29.88;;;18.98;;
55913;SDS011;58179;48.776;9.124;2024-01-11T12:15:00;39.65;;;23.25;;
55913;SDS011;58179;48.776;9.124;2024-01-11T12:17:28;36.45;;;22.35;;
55913;SDS011;58179;48.776;9.124;2024-01-11T12:19:54;34.03;;;21.23;;
55913;SDS011;58179;48.776;9.124;2024-01-11T12:22:20;33.72;;;20.88;;
55913;SDS011;58179;48.776;9.124;2024-01-11T12:24:48;32.78;;;21.23;;
55913;SDS011;58179;48.776;9.124;2024-01-11T12:27:15;30.83;;;19.95;;
55913;SDS011;58179;48.776;9.124;2024-01-11T12:29:41;29.90;;;19.65;;
55913;SDS011;58179;48.776;9.124;2024-01-11T12:32:07;29.55;;;18.65;;
55913;SDS011;58179;48.776;9.124;2024-01-11T12:34:36;29.57;;;19.20;;
55913;SDS011;58179;48.776;9.124;2024-01-11T12:37:05;28.15;;;18.70;;
55913;SDS011;58179;48.776;9.124;2024-01-11T12:39:31;29.45;;;18.88;;
55913;SDS011;58179;48.776;9.124;2024-01-11T12:41:58;29.65;;;19.65;;
55913;SDS011;58179;48.776;9.124;2024-01-11T12:44:25;31.50;;;20.27;;
55913;SDS011;58179;48.776;9.124;2024-01-11T12:46:51;30.27;;;19.77;;
55913;SDS011;58179;48.776;9.124;2024-01-11T12:49:17;30.80;;;19.42;;
55913;SDS011;58179;48.776;9.124;2024-01-11T12:51:44;31.40;;;20.40;;
55913;SDS011;58179;48.776;9.124;2024-01-11T12:54:11;30.80;;;19.90;;
55913;SDS011;58179;48.776;9.124;2024-01-11T12:56:44;27.83;;;18.95;;
55913;SDS011;58179;48.776;9.124;2024-01-11T12:59:11;29.95;;;19.15;;
55913;SDS011;58179;48.776;9.124;2024-01-11T13:01:41;30.50;;;20.00;;
55913;SDS011;58179;48.776;9.124;2024-01-11T13:04:07;29.98;;;20.70;;
55913;SDS011;58179;48.776;9.124;2024-01-11T13:06:34;34.58;;;21.75;;
55913;SDS011;58179;48.776;9.124;2024-01-11T13:09:01;28.98;;;19.55;;
55913;SDS011;58179;48.776;9.124;2024-01-11T13:11:28;30.65;;;20.40;;
55913;SDS011;58179;48.776;9.124;2024-01-11T13:13:54;31.05;;;19.35;;
55913;SDS011;58179;48.776;9.124;2024-01-11T13:16:24;30.08;;;19.52;;
55913;SDS011;58179;48.776;9.124;2024-01-11T13:18:50;28.75;;;18.98;;
55913;SDS011;58179;48.776;9.124;2024-01-11T13:21:16;27.70;;;17.90;;
55913;SDS011;58179;48.776;9.124;2024-01-11T13:23:42;28.15;;;17.50;;
55913;SDS011;58179;48.776;9.124;2024-01-11T13:26:08;29.17;;;18.48;;
55913;SDS011;58179;48.776;9.124;2024-01-11T13:28:35;29.55;;;18.13;;
55913;SDS011;58179;48.776;9.124;2024-01-11T13:31:02;27.77;;;17.45;;
55913;SDS011;58179;48.776;9.124;2024-01-11T13:33:29;31.55;;;20.40;;
55913;SDS011;58179;48.776;9.124;2024-01-11T13:35:55;31.80;;;19.73;;
55913;SDS011;58179;48.776;9.124;2024-01-11T13:38:21;29.52;;;19.88;;
55913;SDS011;58179;48.776;9.124;2024-01-11T13:40:48;30.88;;;19.50;;
55913;SDS011;58179;48.776;9.124;2024-01-11T13:43:14;32.45;;;20.80;;
55913;SDS011;58179;48.776;9.124;2024-01-11T13:45:40;31.42;;;21.05;;
55913;SDS011;58179;48.776;9.124;2024-01-11T13:48:07;32.40;;;20.85;;
55913;SDS011;58179;48.776;9.124;2024-01-11T13:50:34;32.15;;;21.50;;
55913;SDS011;58179;48.776;9.124;2024-01-11T13:53:01;32.88;;;20.75;;
55913;SDS011;58179;48.776;9.124;2024-01-11T13:55:27;36.70;;;23.88;;
55913;SDS011;58179;48.776;9.124;2024-01-11T13:57:55;37.73;;;24.43;;
55913;SDS011;58179;48.776;9.124;2024-01-11T14:00:21;35.80;;;24.17;;
55913;SDS011;58179;48.776;9.124;2024-01-11T14:02:47;36.25;;;24.42;;
55913;SDS011;58179;48.776;9.124;2024-01-11T14:05:14;35.83;;;25.25;;
55913;SDS011;58179;48.776;9.124;2024-01-11T14:07:43;44.23;;;28.83;;
55913;SDS011;58179;48.776;9.124;2024-01-11T14:10:10;42.13;;;28.25;;
55913;SDS011;58179;48.776;9.124;2024-01-11T14:12:37;64.72;;;39.30;;
55913;SDS011;58179;48.776;9.124;2024-01-11T14:15:05;70.25;;;44.13;;
55913;SDS011;58179;48.776;9.124;2024-01-11T14:17:32;64.63;;;41.83;;
55913;SDS011;58179;48.776;9.124;2024-01-11T14:19:58;55.92;;;36.97;;